CheckWX is a tool to help pilots better visualize weather data.  It is not intended as a substitute for an official pre-flight weather briefing.

07:41:06 UTC

KPAO METAR
Palo Alto Airport
Palo Alto, California, USA
Current

3 hours ago

KPAO 060447Z 00000KT 10SM OVC030 14/12 A3005
Observed
Dec-6 @ 04:47 UTC
Visibility
10 SM
Flight Rules
MVFR
Cloud Levels
  • Overcast at 3,000' AGL
Temperature
14°C / 57°F
Dewpoint
12°C / 54°F
Humidity
88%
Altimeter
30.05" Hg
Pressure
1017.62 hPa
Previous

4 hours ago

KPAO 060357Z 33004KT 10SM BKN030 13/12 A3004
Observed
Dec-6 @ 03:57 UTC
Wind
  • 330° at 4 KTS
Visibility
10 SM
Flight Rules
MVFR
Cloud Levels
  • Broken at 3,000' AGL
Temperature
13°C / 55°F
Dewpoint
12°C / 54°F
Humidity
94%
Altimeter
30.04" Hg
Pressure
1017.32 hPa
Previous

5 hours ago

KPAO 060247Z 32005KT 10SM BKN030 14/11 A3005
Observed
Dec-6 @ 02:47 UTC
Wind
  • 320° at 5 KTS
Visibility
10 SM
Flight Rules
MVFR
Cloud Levels
  • Broken at 3,000' AGL
Temperature
14°C / 57°F
Dewpoint
11°C / 52°F
Humidity
82%
Altimeter
30.05" Hg
Pressure
1017.62 hPa